sensor_id;sensor_type;location;lat;lon;timestamp;temperature;humidity
22765;DHT22;11549;50.852;3.816;2022-12-29T00:01:22;11.60;99.90
22765;DHT22;11549;50.852;3.816;2022-12-29T00:03:50;11.50;99.90
22765;DHT22;11549;50.852;3.816;2022-12-29T00:06:20;11.60;99.90
22765;DHT22;11549;50.852;3.816;2022-12-29T00:08:49;11.60;99.90
22765;DHT22;11549;50.852;3.816;2022-12-29T00:11:19;11.70;99.90
22765;DHT22;11549;50.852;3.816;2022-12-29T00:13:48;11.70;99.90
22765;DHT22;11549;50.852;3.816;2022-12-29T00:16:36;11.70;99.90
22765;DHT22;11549;50.852;3.816;2022-12-29T00:19:05;11.70;99.90
22765;DHT22;11549;50.852;3.816;2022-12-29T00:21:55;11.70;99.90
22765;DHT22;11549;50.852;3.816;2022-12-29T00:24:41;11.70;99.90
22765;DHT22;11549;50.852;3.816;2022-12-29T00:27:28;11.70;99.90
22765;DHT22;11549;50.852;3.816;2022-12-29T00:30:16;11.70;99.90
22765;DHT22;11549;50.852;3.816;2022-12-29T00:33:09;11.60;99.90
22765;DHT22;11549;50.852;3.816;2022-12-29T00:35:57;11.70;99.90
22765;DHT22;11549;50.852;3.816;2022-12-29T00:38:31;11.70;99.90
22765;DHT22;11549;50.852;3.816;2022-12-29T00:41:18;11.70;99.90
22765;DHT22;11549;50.852;3.816;2022-12-29T00:44:04;11.70;99.90
22765;DHT22;11549;50.852;3.816;2022-12-29T00:46:37;11.80;99.90
22765;DHT22;11549;50.852;3.816;2022-12-29T00:49:07;11.80;99.90
22765;DHT22;11549;50.852;3.816;2022-12-29T00:51:54;11.80;99.90
22765;DHT22;11549;50.852;3.816;2022-12-29T00:54:24;11.90;99.90
22765;DHT22;11549;50.852;3.816;2022-12-29T00:56:52;11.90;99.90
22765;DHT22;11549;50.852;3.816;2022-12-29T00:59:22;11.90;99.90
22765;DHT22;11549;50.852;3.816;2022-12-29T01:01:54;11.90;99.90
22765;DHT22;11549;50.852;3.816;2022-12-29T01:04:25;11.80;99.90
22765;DHT22;11549;50.852;3.816;2022-12-29T01:06:54;11.70;99.90
22765;DHT22;11549;50.852;3.816;2022-12-29T01:09:24;11.80;99.90
22765;DHT22;11549;50.852;3.816;2022-12-29T01:12:10;11.70;99.90
22765;DHT22;11549;50.852;3.816;2022-12-29T01:14:40;11.60;99.90
22765;DHT22;11549;50.852;3.816;2022-12-29T01:17:08;11.60;99.90
22765;DHT22;11549;50.852;3.816;2022-12-29T01:19:37;11.60;99.90
22765;DHT22;11549;50.852;3.816;2022-12-29T01:22:05;11.60;99.90
22765;DHT22;11549;50.852;3.816;2022-12-29T01:24:34;11.60;99.90
22765;DHT22;11549;50.852;3.816;2022-12-29T01:27:03;11.60;99.90
22765;DHT22;11549;50.852;3.816;2022-12-29T01:29:33;11.60;99.90
22765;DHT22;11549;50.852;3.816;2022-12-29T01:32:01;11.60;99.90
22765;DHT22;11549;50.852;3.816;2022-12-29T01:34:29;11.60;99.90
22765;DHT22;11549;50.852;3.816;2022-12-29T01:36:58;11.60;99.90
22765;DHT22;11549;50.852;3.816;2022-12-29T01:39:26;11.50;99.90
22765;DHT22;11549;50.852;3.816;2022-12-29T01:41:56;11.60;99.90
22765;DHT22;11549;50.852;3.816;2022-12-29T01:44:50;11.60;99.90
22765;DHT22;11549;50.852;3.816;2022-12-29T01:47:25;11.60;99.90
22765;DHT22;11549;50.852;3.816;2022-12-29T01:49:56;11.50;99.90
22765;DHT22;11549;50.852;3.816;2022-12-29T01:52:27;11.60;99.90
22765;DHT22;11549;50.852;3.816;2022-12-29T01:54:57;11.60;99.90
22765;DHT22;11549;50.852;3.816;2022-12-29T01:57:29;11.60;99.90
22765;DHT22;11549;50.852;3.816;2022-12-29T02:00:02;11.50;99.90
22765;DHT22;11549;50.852;3.816;2022-12-29T02:02:31;11.50;99.90
22765;DHT22;11549;50.852;3.816;2022-12-29T02:05:04;11.40;99.90
22765;DHT22;11549;50.852;3.816;2022-12-29T02:07:33;11.40;99.90
22765;DHT22;11549;50.852;3.816;2022-12-29T02:10:02;11.30;99.90
22765;DHT22;11549;50.852;3.816;2022-12-29T02:12:33;11.30;99.90
22765;DHT22;11549;50.852;3.816;2022-12-29T02:15:02;11.40;99.90
22765;DHT22;11549;50.852;3.816;2022-12-29T02:17:41;11.40;99.90
22765;DHT22;11549;50.852;3.816;2022-12-29T02:23:49;11.30;99.90
22765;DHT22;11549;50.852;3.816;2022-12-29T02:26:47;11.30;99.90
22765;DHT22;11549;50.852;3.816;2022-12-29T02:32:34;11.20;99.90
22765;DHT22;11549;50.852;3.816;2022-12-29T02:35:10;11.10;99.90
22765;DHT22;11549;50.852;3.816;2022-12-29T02:37:43;11.10;99.90
22765;DHT22;11549;50.852;3.816;2022-12-29T02:40:21;11.10;99.90
22765;DHT22;11549;50.852;3.816;2022-12-29T02:42:59;11.10;99.90
22765;DHT22;11549;50.852;3.816;2022-12-29T02:45:33;11.10;99.90
22765;DHT22;11549;50.852;3.816;2022-12-29T02:48:10;11.10;99.90
22765;DHT22;11549;50.852;3.816;2022-12-29T02:50:50;11.10;99.90
22765;DHT22;11549;50.852;3.816;2022-12-29T02:53:21;11.10;99.90
22765;DHT22;11549;50.852;3.816;2022-12-29T02:56:10;11.00;99.90
22765;DHT22;11549;50.852;3.816;2022-12-29T02:58:38;11.00;99.90
22765;DHT22;11549;50.852;3.816;2022-12-29T03:01:29;10.90;99.90
22765;DHT22;11549;50.852;3.816;2022-12-29T03:04:22;10.90;99.90
22765;DHT22;11549;50.852;3.816;2022-12-29T03:06:59;10.80;99.90
22765;DHT22;11549;50.852;3.816;2022-12-29T03:09:37;10.80;99.90
22765;DHT22;11549;50.852;3.816;2022-12-29T03:12:14;10.70;99.90
22765;DHT22;11549;50.852;3.816;2022-12-29T03:14:53;10.70;99.90
22765;DHT22;11549;50.852;3.816;2022-12-29T03:17:48;10.70;99.90
22765;DHT22;11549;50.852;3.816;2022-12-29T03:20:23;10.70;99.90
22765;DHT22;11549;50.852;3.816;2022-12-29T03:22:57;10.70;99.90
22765;DHT22;11549;50.852;3.816;2022-12-29T03:25:30;10.70;99.90
22765;DHT22;11549;50.852;3.816;2022-12-29T03:28:02;10.70;99.90
22765;DHT22;11549;50.852;3.816;2022-12-29T03:30:32;10.70;99.90
22765;DHT22;11549;50.852;3.816;2022-12-29T03:33:04;10.60;99.90
22765;DHT22;11549;50.852;3.816;2022-12-29T03:35:40;10.60;99.90
22765;DHT22;11549;50.852;3.816;2022-12-29T03:38:13;10.60;99.90
22765;DHT22;11549;50.852;3.816;2022-12-29T03:40:46;10.60;99.90
22765;DHT22;11549;50.852;3.816;2022-12-29T03:43:17;10.50;99.90
22765;DHT22;11549;50.852;3.816;2022-12-29T03:45:46;10.60;99.90
22765;DHT22;11549;50.852;3.816;2022-12-29T03:48:14;10.50;99.90
22765;DHT22;11549;50.852;3.816;2022-12-29T03:50:44;10.50;99.90
22765;DHT22;11549;50.852;3.816;2022-12-29T03:53:12;10.50;99.90
22765;DHT22;11549;50.852;3.816;2022-12-29T03:55:40;10.50;99.90
22765;DHT22;11549;50.852;3.816;2022-12-29T03:58:10;10.50;99.90
22765;DHT22;11549;50.852;3.816;2022-12-29T04:00:38;10.50;99.90
22765;DHT22;11549;50.852;3.816;2022-12-29T04:03:07;10.50;99.90
22765;DHT22;11549;50.852;3.816;2022-12-29T04:05:35;10.50;99.90
22765;DHT22;11549;50.852;3.816;2022-12-29T04:08:05;10.50;99.90
22765;DHT22;11549;50.852;3.816;2022-12-29T04:10:34;10.40;99.90
22765;DHT22;11549;50.852;3.816;2022-12-29T04:13:03;10.40;99.90
22765;DHT22;11549;50.852;3.816;2022-12-29T04:15:31;10.50;99.90
22765;DHT22;11549;50.852;3.816;2022-12-29T04:17:59;10.50;99.90
22765;DHT22;11549;50.852;3.816;2022-12-29T04:20:28;10.60;99.90
22765;DHT22;11549;50.852;3.816;2022-12-29T04:23:15;10.60;99.90
22765;DHT22;11549;50.852;3.816;2022-12-29T04:25:45;10.60;99.90
22765;DHT22;11549;50.852;3.816;2022-12-29T04:28:14;10.60;99.90
22765;DHT22;11549;50.852;3.816;2022-12-29T04:30:44;10.60;99.90
22765;DHT22;11549;50.852;3.816;2022-12-29T04:33:13;10.60;99.90
22765;DHT22;11549;50.852;3.816;2022-12-29T04:35:44;10.60;99.90
22765;DHT22;11549;50.852;3.816;2022-12-29T04:38:14;10.60;99.90
22765;DHT22;11549;50.852;3.816;2022-12-29T04:40:44;10.60;99.90
22765;DHT22;11549;50.852;3.816;2022-12-29T04:43:13;10.60;99.90
22765;DHT22;11549;50.852;3.816;2022-12-29T04:45:44;10.60;99.90
22765;DHT22;11549;50.852;3.816;2022-12-29T04:48:13;10.70;99.90
22765;DHT22;11549;50.852;3.816;2022-12-29T04:50:43;10.60;99.90
22765;DHT22;11549;50.852;3.816;2022-12-29T04:53:11;10.70;99.90
22765;DHT22;11549;50.852;3.816;2022-12-29T04:55:41;10.70;99.90
22765;DHT22;11549;50.852;3.816;2022-12-29T04:58:09;10.70;99.90
22765;DHT22;11549;50.852;3.816;2022-12-29T05:00:43;10.70;99.90
22765;DHT22;11549;50.852;3.816;2022-12-29T05:03:12;10.70;99.90
22765;DHT22;11549;50.852;3.816;2022-12-29T05:05:41;10.80;99.90
22765;DHT22;11549;50.852;3.816;2022-12-29T05:08:09;10.70;99.90
22765;DHT22;11549;50.852;3.816;2022-12-29T05:10:39;10.70;99.90
22765;DHT22;11549;50.852;3.816;2022-12-29T05:13:08;10.60;99.90
22765;DHT22;11549;50.852;3.816;2022-12-29T05:15:36;10.60;99.90
22765;DHT22;11549;50.852;3.816;2022-12-29T05:18:05;10.60;99.90
22765;DHT22;11549;50.852;3.816;2022-12-29T05:20:33;10.60;99.90
22765;DHT22;11549;50.852;3.816;2022-12-29T05:23:01;10.60;99.90
22765;DHT22;11549;50.852;3.816;2022-12-29T05:25:30;10.70;99.90
22765;DHT22;11549;50.852;3.816;2022-12-29T05:27:59;10.70;99.90
22765;DHT22;11549;50.852;3.816;2022-12-29T05:30:27;10.70;99.90
22765;DHT22;11549;50.852;3.816;2022-12-29T05:32:56;10.60;99.90
22765;DHT22;11549;50.852;3.816;2022-12-29T05:35:24;10.60;99.90
22765;DHT22;11549;50.852;3.816;2022-12-29T05:37:53;10.60;99.90
22765;DHT22;11549;50.852;3.816;2022-12-29T05:40:21;10.60;99.90
22765;DHT22;11549;50.852;3.816;2022-12-29T05:42:49;10.60;99.90
22765;DHT22;11549;50.852;3.816;2022-12-29T05:45:19;10.60;99.90
22765;DHT22;11549;50.852;3.816;2022-12-29T05:47:48;10.60;99.90
22765;DHT22;11549;50.852;3.816;2022-12-29T05:50:16;10.50;99.90
22765;DHT22;11549;50.852;3.816;2022-12-29T05:52:45;10.50;99.90
22765;DHT22;11549;50.852;3.816;2022-12-29T05:55:13;10.50;99.90
22765;DHT22;11549;50.852;3.816;2022-12-29T05:57:41;10.50;99.90
22765;DHT22;11549;50.852;3.816;2022-12-29T06:00:11;10.50;99.90
22765;DHT22;11549;50.852;3.816;2022-12-29T06:02:41;10.50;99.90
22765;DHT22;11549;50.852;3.816;2022-12-29T06:05:10;10.60;99.90
22765;DHT22;11549;50.852;3.816;2022-12-29T06:07:39;10.60;99.90
22765;DHT22;11549;50.852;3.816;2022-12-29T06:10:07;10.60;99.90
22765;DHT22;11549;50.852;3.816;2022-12-29T06:12:36;10.70;99.90
22765;DHT22;11549;50.852;3.816;2022-12-29T06:15:06;10.70;99.90
22765;DHT22;11549;50.852;3.816;2022-12-29T06:17:34;10.70;99.90
22765;DHT22;11549;50.852;3.816;2022-12-29T06:20:06;10.70;99.90
22765;DHT22;11549;50.852;3.816;2022-12-29T06:22:34;10.70;99.90
22765;DHT22;11549;50.852;3.816;2022-12-29T06:25:03;10.60;99.90
22765;DHT22;11549;50.852;3.816;2022-12-29T06:27:33;10.60;99.90
22765;DHT22;11549;50.852;3.816;2022-12-29T06:30:01;10.70;99.90
22765;DHT22;11549;50.852;3.816;2022-12-29T06:32:29;10.80;99.90
22765;DHT22;11549;50.852;3.816;2022-12-29T06:34:58;10.70;99.90
22765;DHT22;11549;50.852;3.816;2022-12-29T06:37:27;10.80;99.90
22765;DHT22;11549;50.852;3.816;2022-12-29T06:39:56;10.70;99.90
22765;DHT22;11549;50.852;3.816;2022-12-29T06:42:24;10.80;99.90
22765;DHT22;11549;50.852;3.816;2022-12-29T06:44:52;10.70;99.90
22765;DHT22;11549;50.852;3.816;2022-12-29T06:47:21;10.70;99.90
22765;DHT22;11549;50.852;3.816;2022-12-29T06:49:49;10.70;99.90
22765;DHT22;11549;50.852;3.816;2022-12-29T06:52:17;10.60;99.90
22765;DHT22;11549;50.852;3.816;2022-12-29T06:54:47;10.60;99.90
22765;DHT22;11549;50.852;3.816;2022-12-29T06:57:16;10.70;99.90
22765;DHT22;11549;50.852;3.816;2022-12-29T06:59:44;10.70;99.90
22765;DHT22;11549;50.852;3.816;2022-12-29T07:02:13;10.70;99.90
22765;DHT22;11549;50.852;3.816;2022-12-29T07:04:42;10.70;99.90
22765;DHT22;11549;50.852;3.816;2022-12-29T07:07:10;10.70;99.90
22765;DHT22;11549;50.852;3.816;2022-12-29T07:09:39;10.70;99.90
22765;DHT22;11549;50.852;3.816;2022-12-29T07:12:08;10.70;99.90
22765;DHT22;11549;50.852;3.816;2022-12-29T07:14:37;10.70;99.90
22765;DHT22;11549;50.852;3.816;2022-12-29T07:17:09;10.70;99.90
22765;DHT22;11549;50.852;3.816;2022-12-29T07:19:37;10.70;99.90
22765;DHT22;11549;50.852;3.816;2022-12-29T07:22:06;10.70;99.90
22765;DHT22;11549;50.852;3.816;2022-12-29T07:24:34;10.80;99.90
22765;DHT22;11549;50.852;3.816;2022-12-29T07:27:03;10.80;99.90
22765;DHT22;11549;50.852;3.816;2022-12-29T07:29:32;10.80;99.90
22765;DHT22;11549;50.852;3.816;2022-12-29T07:32:01;10.80;99.90
22765;DHT22;11549;50.852;3.816;2022-12-29T07:34:29;10.80;99.90
22765;DHT22;11549;50.852;3.816;2022-12-29T07:36:57;10.90;99.90
22765;DHT22;11549;50.852;3.816;2022-12-29T07:39:26;10.80;99.90
22765;DHT22;11549;50.852;3.816;2022-12-29T07:41:54;10.80;99.90
22765;DHT22;11549;50.852;3.816;2022-12-29T07:44:31;10.80;99.90
22765;DHT22;11549;50.852;3.816;2022-12-29T07:47:00;10.80;99.90
22765;DHT22;11549;50.852;3.816;2022-12-29T07:49:28;10.80;99.90
22765;DHT22;11549;50.852;3.816;2022-12-29T07:51:56;10.80;99.90
22765;DHT22;11549;50.852;3.816;2022-12-29T07:54:25;10.80;99.90
22765;DHT22;11549;50.852;3.816;2022-12-29T07:56:53;10.80;99.90
22765;DHT22;11549;50.852;3.816;2022-12-29T07:59:21;10.80;99.90
22765;DHT22;11549;50.852;3.816;2022-12-29T08:01:51;10.80;99.90
22765;DHT22;11549;50.852;3.816;2022-12-29T08:04:20;10.80;99.90
22765;DHT22;11549;50.852;3.816;2022-12-29T08:06:50;10.80;99.90
22765;DHT22;11549;50.852;3.816;2022-12-29T08:09:18;10.80;99.90
22765;DHT22;11549;50.852;3.816;2022-12-29T08:11:50;10.80;99.90
22765;DHT22;11549;50.852;3.816;2022-12-29T08:14:19;10.90;99.90
22765;DHT22;11549;50.852;3.816;2022-12-29T08:16:47;10.80;99.90
22765;DHT22;11549;50.852;3.816;2022-12-29T08:19:17;10.80;99.90
22765;DHT22;11549;50.852;3.816;2022-12-29T08:21:45;10.70;99.90
22765;DHT22;11549;50.852;3.816;2022-12-29T08:24:14;10.70;99.90
22765;DHT22;11549;50.852;3.816;2022-12-29T08:26:42;10.70;99.90
22765;DHT22;11549;50.852;3.816;2022-12-29T08:29:10;10.70;99.90
22765;DHT22;11549;50.852;3.816;2022-12-29T08:31:39;10.70;99.90
22765;DHT22;11549;50.852;3.816;2022-12-29T08:34:07;10.70;99.90
22765;DHT22;11549;50.852;3.816;2022-12-29T08:36:37;10.70;99.90
22765;DHT22;11549;50.852;3.816;2022-12-29T08:39:05;10.60;99.90
22765;DHT22;11549;50.852;3.816;2022-12-29T08:41:34;10.60;99.90
22765;DHT22;11549;50.852;3.816;2022-12-29T08:44:02;10.50;99.90
22765;DHT22;11549;50.852;3.816;2022-12-29T08:46:30;10.40;99.90
22765;DHT22;11549;50.852;3.816;2022-12-29T08:48:59;10.40;99.90
22765;DHT22;11549;50.852;3.816;2022-12-29T08:51:27;10.20;99.90
22765;DHT22;11549;50.852;3.816;2022-12-29T08:53:57;10.20;99.90
22765;DHT22;11549;50.852;3.816;2022-12-29T08:56:26;10.30;99.90
22765;DHT22;11549;50.852;3.816;2022-12-29T08:58:54;10.30;99.90
22765;DHT22;11549;50.852;3.816;2022-12-29T09:01:23;10.30;99.90
22765;DHT22;11549;50.852;3.816;2022-12-29T09:03:53;10.20;99.90
22765;DHT22;11549;50.852;3.816;2022-12-29T09:06:42;10.20;99.90
22765;DHT22;11549;50.852;3.816;2022-12-29T09:09:12;10.10;99.90
22765;DHT22;11549;50.852;3.816;2022-12-29T09:11:42;10.00;99.90
22765;DHT22;11549;50.852;3.816;2022-12-29T09:14:10;10.00;99.90
22765;DHT22;11549;50.852;3.816;2022-12-29T09:16:39;9.90;99.90
22765;DHT22;11549;50.852;3.816;2022-12-29T09:19:25;10.00;99.90
22765;DHT22;11549;50.852;3.816;2022-12-29T09:21:54;9.90;99.90
22765;DHT22;11549;50.852;3.816;2022-12-29T09:24:23;9.90;99.90
22765;DHT22;11549;50.852;3.816;2022-12-29T09:26:52;9.90;99.90
22765;DHT22;11549;50.852;3.816;2022-12-29T09:29:21;9.90;99.90
22765;DHT22;11549;50.852;3.816;2022-12-29T09:31:49;9.90;99.90
22765;DHT22;11549;50.852;3.816;2022-12-29T09:34:18;9.90;99.90
22765;DHT22;11549;50.852;3.816;2022-12-29T09:36:46;10.00;99.90
22765;DHT22;11549;50.852;3.816;2022-12-29T09:39:15;10.00;99.90
22765;DHT22;11549;50.852;3.816;2022-12-29T09:41:52;10.10;99.90
22765;DHT22;11549;50.852;3.816;2022-12-29T09:44:26;10.10;99.90
22765;DHT22;11549;50.852;3.816;2022-12-29T09:46:58;10.10;99.90
22765;DHT22;11549;50.852;3.816;2022-12-29T09:49:32;10.20;99.90
22765;DHT22;11549;50.852;3.816;2022-12-29T09:52:11;10.20;99.90
22765;DHT22;11549;50.852;3.816;2022-12-29T09:54:50;10.10;99.90
22765;DHT22;11549;50.852;3.816;2022-12-29T09:57:33;10.10;99.90
22765;DHT22;11549;50.852;3.816;2022-12-29T10:00:05;10.20;99.90
22765;DHT22;11549;50.852;3.816;2022-12-29T10:02:38;10.30;99.90
22765;DHT22;11549;50.852;3.816;2022-12-29T10:05:20;10.40;99.90
22765;DHT22;11549;50.852;3.816;2022-12-29T10:07:57;10.50;99.90
22765;DHT22;11549;50.852;3.816;2022-12-29T10:10:35;10.50;99.90
22765;DHT22;11549;50.852;3.816;2022-12-29T10:13:27;10.50;99.90
22765;DHT22;11549;50.852;3.816;2022-12-29T10:16:02;10.60;99.90
22765;DHT22;11549;50.852;3.816;2022-12-29T10:18:49;10.70;99.90
22765;DHT22;11549;50.852;3.816;2022-12-29T10:21:29;10.80;99.90
22765;DHT22;11549;50.852;3.816;2022-12-29T10:24:02;10.80;99.90
22765;DHT22;11549;50.852;3.816;2022-12-29T10:26:37;10.90;99.90
22765;DHT22;11549;50.852;3.816;2022-12-29T10:29:14;10.90;99.90
22765;DHT22;11549;50.852;3.816;2022-12-29T10:31:46;11.10;99.90
22765;DHT22;11549;50.852;3.816;2022-12-29T10:34:20;11.10;99.90
22765;DHT22;11549;50.852;3.816;2022-12-29T10:36:52;11.20;99.90
22765;DHT22;11549;50.852;3.816;2022-12-29T10:39:28;11.20;99.90
22765;DHT22;11549;50.852;3.816;2022-12-29T10:42:04;11.10;99.90
22765;DHT22;11549;50.852;3.816;2022-12-29T10:44:38;11.00;99.90
22765;DHT22;11549;50.852;3.816;2022-12-29T10:47:11;11.00;99.90
22765;DHT22;11549;50.852;3.816;2022-12-29T10:49:45;11.00;99.90
22765;DHT22;11549;50.852;3.816;2022-12-29T10:52:16;11.00;99.90
22765;DHT22;11549;50.852;3.816;2022-12-29T10:54:48;11.00;99.90
22765;DHT22;11549;50.852;3.816;2022-12-29T10:57:25;11.00;99.90
22765;DHT22;11549;50.852;3.816;2022-12-29T10:59:57;11.00;99.90
22765;DHT22;11549;50.852;3.816;2022-12-29T11:03:01;11.00;99.90
22765;DHT22;11549;50.852;3.816;2022-12-29T11:05:34;11.10;99.90
22765;DHT22;11549;50.852;3.816;2022-12-29T11:08:09;11.10;99.90
22765;DHT22;11549;50.852;3.816;2022-12-29T11:10:39;11.20;99.90
22765;DHT22;11549;50.852;3.816;2022-12-29T11:13:13;11.20;99.90
22765;DHT22;11549;50.852;3.816;2022-12-29T11:15:45;11.20;99.90
22765;DHT22;11549;50.852;3.816;2022-12-29T11:18:22;11.20;99.90
22765;DHT22;11549;50.852;3.816;2022-12-29T11:20:55;11.30;99.90
22765;DHT22;11549;50.852;3.816;2022-12-29T11:23:30;11.20;99.90
22765;DHT22;11549;50.852;3.816;2022-12-29T11:26:15;11.40;99.90
22765;DHT22;11549;50.852;3.816;2022-12-29T11:28:45;11.50;99.90
22765;DHT22;11549;50.852;3.816;2022-12-29T11:31:21;11.50;99.90
22765;DHT22;11549;50.852;3.816;2022-12-29T11:33:49;11.40;99.90
22765;DHT22;11549;50.852;3.816;2022-12-29T11:36:20;11.50;99.90
22765;DHT22;11549;50.852;3.816;2022-12-29T11:38:51;11.50;99.90
22765;DHT22;11549;50.852;3.816;2022-12-29T11:41:22;11.50;99.90
22765;DHT22;11549;50.852;3.816;2022-12-29T11:43:52;11.60;99.90
22765;DHT22;11549;50.852;3.816;2022-12-29T11:46:25;11.50;99.90
22765;DHT22;11549;50.852;3.816;2022-12-29T11:48:56;11.40;99.90
22765;DHT22;11549;50.852;3.816;2022-12-29T11:51:29;11.30;99.90
22765;DHT22;11549;50.852;3.816;2022-12-29T11:53:59;11.30;99.90
22765;DHT22;11549;50.852;3.816;2022-12-29T11:56:37;11.30;99.90
22765;DHT22;11549;50.852;3.816;2022-12-29T11:59:34;11.20;99.90
22765;DHT22;11549;50.852;3.816;2022-12-29T12:02:38;11.20;99.90
22765;DHT22;11549;50.852;3.816;2022-12-29T12:05:15;11.10;99.90
22765;DHT22;11549;50.852;3.816;2022-12-29T12:07:46;11.00;99.90
22765;DHT22;11549;50.852;3.816;2022-12-29T12:10:21;11.00;99.90
22765;DHT22;11549;50.852;3.816;2022-12-29T12:12:56;11.10;99.90
22765;DHT22;11549;50.852;3.816;2022-12-29T12:15:30;11.00;99.90
22765;DHT22;11549;50.852;3.816;2022-12-29T12:18:05;11.10;99.90
22765;DHT22;11549;50.852;3.816;2022-12-29T12:20:42;11.10;99.90
22765;DHT22;11549;50.852;3.816;2022-12-29T12:23:22;11.10;99.90
22765;DHT22;11549;50.852;3.816;2022-12-29T12:26:01;11.10;99.90
22765;DHT22;11549;50.852;3.816;2022-12-29T12:28:40;11.10;99.90
22765;DHT22;11549;50.852;3.816;2022-12-29T12:31:18;11.10;99.90
22765;DHT22;11549;50.852;3.816;2022-12-29T12:33:56;11.00;99.90
22765;DHT22;11549;50.852;3.816;2022-12-29T12:36:39;11.00;99.90
22765;DHT22;11549;50.852;3.816;2022-12-29T12:39:22;11.00;99.90
22765;DHT22;11549;50.852;3.816;2022-12-29T12:42:04;11.00;99.90
22765;DHT22;11549;50.852;3.816;2022-12-29T12:44:41;11.00;99.90
22765;DHT22;11549;50.852;3.816;2022-12-29T12:50:34;11.10;99.90
22765;DHT22;11549;50.852;3.816;2022-12-29T12:53:31;11.10;99.90
22765;DHT22;11549;50.852;3.816;2022-12-29T12:59:03;11.20;99.90
22765;DHT22;11549;50.852;3.816;2022-12-29T13:01:42;11.10;99.90
22765;DHT22;11549;50.852;3.816;2022-12-29T13:04:36;11.10;99.90
22765;DHT22;11549;50.852;3.816;2022-12-29T13:07:17;11.00;99.90
22765;DHT22;11549;50.852;3.816;2022-12-29T13:10:05;11.00;99.90
22765;DHT22;11549;50.852;3.816;2022-12-29T13:12:48;10.90;99.90
22765;DHT22;11549;50.852;3.816;2022-12-29T13:15:31;10.90;99.90
22765;DHT22;11549;50.852;3.816;2022-12-29T13:18:06;10.90;99.90
22765;DHT22;11549;50.852;3.816;2022-12-29T13:20:42;10.90;99.90
22765;DHT22;11549;50.852;3.816;2022-12-29T13:23:21;10.80;99.90
22765;DHT22;11549;50.852;3.816;2022-12-29T13:25:58;10.70;99.90
22765;DHT22;11549;50.852;3.816;2022-12-29T13:28:31;10.80;99.90
22765;DHT22;11549;50.852;3.816;2022-12-29T13:31:07;10.90;99.90
22765;DHT22;11549;50.852;3.816;2022-12-29T13:33:44;10.90;99.90
22765;DHT22;11549;50.852;3.816;2022-12-29T13:36:22;10.90;99.90
22765;DHT22;11549;50.852;3.816;2022-12-29T13:39:01;10.90;99.90
22765;DHT22;11549;50.852;3.816;2022-12-29T13:41:33;10.80;99.90
22765;DHT22;11549;50.852;3.816;2022-12-29T13:44:03;10.80;99.90
22765;DHT22;11549;50.852;3.816;2022-12-29T13:46:37;10.60;99.90
22765;DHT22;11549;50.852;3.816;2022-12-29T13:49:11;10.20;99.90
22765;DHT22;11549;50.852;3.816;2022-12-29T13:51:41;10.00;99.90
22765;DHT22;11549;50.852;3.816;2022-12-29T13:54:21;9.80;99.90
22765;DHT22;11549;50.852;3.816;2022-12-29T13:56:56;9.60;99.90
22765;DHT22;11549;50.852;3.816;2022-12-29T13:59:38;9.40;99.90
22765;DHT22;11549;50.852;3.816;2022-12-29T14:02:17;9.30;99.90
22765;DHT22;11549;50.852;3.816;2022-12-29T14:04:59;9.30;99.90
22765;DHT22;11549;50.852;3.816;2022-12-29T14:07:28;9.20;99.90
22765;DHT22;11549;50.852;3.816;2022-12-29T14:09:58;9.20;99.90
22765;DHT22;11549;50.852;3.816;2022-12-29T14:12:32;9.20;99.90
22765;DHT22;11549;50.852;3.816;2022-12-29T14:15:06;9.20;99.90
22765;DHT22;11549;50.852;3.816;2022-12-29T14:17:35;9.30;99.90
22765;DHT22;11549;50.852;3.816;2022-12-29T14:20:15;9.20;99.90
22765;DHT22;11549;50.852;3.816;2022-12-29T14:22:56;9.20;99.90
22765;DHT22;11549;50.852;3.816;2022-12-29T14:25:56;9.20;99.90
22765;DHT22;11549;50.852;3.816;2022-12-29T14:28:26;9.20;99.90
22765;DHT22;11549;50.852;3.816;2022-12-29T14:30:56;9.30;99.90
22765;DHT22;11549;50.852;3.816;2022-12-29T14:33:27;9.30;99.90
22765;DHT22;11549;50.852;3.816;2022-12-29T14:35:56;9.20;99.90
22765;DHT22;11549;50.852;3.816;2022-12-29T14:38:30;9.10;99.90
22765;DHT22;11549;50.852;3.816;2022-12-29T14:41:28;9.10;99.90
22765;DHT22;11549;50.852;3.816;2022-12-29T14:44:01;9.20;99.90
22765;DHT22;11549;50.852;3.816;2022-12-29T14:46:54;9.10;99.90
22765;DHT22;11549;50.852;3.816;2022-12-29T14:49:26;9.10;99.90
22765;DHT22;11549;50.852;3.816;2022-12-29T14:52:05;9.10;99.90
22765;DHT22;11549;50.852;3.816;2022-12-29T14:54:50;9.20;99.90
22765;DHT22;11549;50.852;3.816;2022-12-29T14:57:30;9.20;99.90
22765;DHT22;11549;50.852;3.816;2022-12-29T15:00:06;9.10;99.90
22765;DHT22;11549;50.852;3.816;2022-12-29T15:02:40;9.00;99.90
22765;DHT22;11549;50.852;3.816;2022-12-29T15:05:28;9.10;99.90
22765;DHT22;11549;50.852;3.816;2022-12-29T15:07:58;9.10;99.90
22765;DHT22;11549;50.852;3.816;2022-12-29T15:10:35;9.10;99.90
22765;DHT22;11549;50.852;3.816;2022-12-29T15:13:14;9.20;99.90
22765;DHT22;11549;50.852;3.816;2022-12-29T15:15:43;9.20;99.90
22765;DHT22;11549;50.852;3.816;2022-12-29T15:18:22;9.20;99.90
22765;DHT22;11549;50.852;3.816;2022-12-29T15:20:54;9.10;99.90
22765;DHT22;11549;50.852;3.816;2022-12-29T15:23:23;9.00;99.90
22765;DHT22;11549;50.852;3.816;2022-12-29T15:25:56;9.00;99.90
22765;DHT22;11549;50.852;3.816;2022-12-29T15:28:27;8.90;99.90
22765;DHT22;11549;50.852;3.816;2022-12-29T15:30:57;8.90;99.90
22765;DHT22;11549;50.852;3.816;2022-12-29T15:33:29;8.90;99.90
22765;DHT22;11549;50.852;3.816;2022-12-29T15:36:03;8.90;99.90
22765;DHT22;11549;50.852;3.816;2022-12-29T15:38:31;8.90;99.90
22765;DHT22;11549;50.852;3.816;2022-12-29T15:41:20;9.00;99.90
22765;DHT22;11549;50.852;3.816;2022-12-29T15:44:00;8.90;99.90
22765;DHT22;11549;50.852;3.816;2022-12-29T15:46:31;8.90;99.90
22765;DHT22;11549;50.852;3.816;2022-12-29T15:49:05;8.80;99.90
22765;DHT22;11549;50.852;3.816;2022-12-29T15:51:38;8.80;99.90
22765;DHT22;11549;50.852;3.816;2022-12-29T15:54:15;8.80;99.90
22765;DHT22;11549;50.852;3.816;2022-12-29T15:56:44;8.80;99.90
22765;DHT22;11549;50.852;3.816;2022-12-29T15:59:25;8.80;99.90
22765;DHT22;11549;50.852;3.816;2022-12-29T16:01:54;8.80;99.90
22765;DHT22;11549;50.852;3.816;2022-12-29T16:04:24;8.90;99.90
22765;DHT22;11549;50.852;3.816;2022-12-29T16:06:59;8.90;99.90
22765;DHT22;11549;50.852;3.816;2022-12-29T16:09:33;8.90;99.90
22765;DHT22;11549;50.852;3.816;2022-12-29T16:12:04;8.80;99.90
22765;DHT22;11549;50.852;3.816;2022-12-29T16:14:39;8.70;99.90
22765;DHT22;11549;50.852;3.816;2022-12-29T16:17:13;8.60;99.90
22765;DHT22;11549;50.852;3.816;2022-12-29T16:19:49;8.70;99.90
22765;DHT22;11549;50.852;3.816;2022-12-29T16:22:25;8.70;99.90
22765;DHT22;11549;50.852;3.816;2022-12-29T16:24:56;8.70;99.90